Time;durP1;ratioP1;P1;durP2;ratioP2;P2;SDS_P1;SDS_P2;PMS_P1;PMS_P2;Temp;Humidity;BMP_temperature;BMP_pressure;BME280_temperature;BME280_humidity;BME280_pressure;Samples;Min_cycle;Max_cycle;Signal;HPM_P1;HPM_P2
2022/10/08 00:02:04;;;;;;;3.90;2.42;;;;;;;12.82;100.00;101579.22;10380094;28;20050;-68
2022/10/08 00:07:04;;;;;;;9.48;2.60;;;;;;;12.78;100.00;101576.06;10379021;28;20045;-67
2022/10/08 00:12:04;;;;;;;1.38;1.17;;;;;;;12.82;100.00;101578.41;10361804;28;20057;-67
2022/10/08 00:17:05;;;;;;;7.63;3.08;;;;;;;12.82;100.00;101568.34;10379170;28;20378;-69
2022/10/08 00:22:05;;;;;;;8.63;3.00;;;;;;;12.88;100.00;101569.47;10379013;28;20120;-68
2022/10/08 00:27:06;;;;;;;5.70;2.10;;;;;;;12.90;100.00;101572.84;10377507;28;20030;-68
2022/10/08 00:32:06;;;;;;;7.22;3.00;;;;;;;12.96;100.00;101574.78;10378033;28;20042;-68
2022/10/08 00:37:06;;;;;;;8.68;3.47;;;;;;;12.98;100.00;101575.41;10379097;28;20038;-68
2022/10/08 00:42:09;;;;;;;6.18;2.63;;;;;;;12.98;100.00;101572.69;10377279;28;20080;-67
2022/10/08 00:47:15;;;;;;;2.47;2.13;;;;;;;13.07;100.00;101586.97;10376193;28;20447;-67
2022/10/08 00:52:17;;;;;;;6.55;2.97;;;;;;;13.08;100.00;101586.78;10376427;28;20548;-68
2022/10/08 00:57:18;;;;;;;4.40;2.42;;;;;;;12.99;100.00;101586.09;10377880;28;20045;-68
2022/10/08 01:02:18;;;;;;;6.43;3.38;;;;;;;12.90;100.00;101579.09;10375917;28;20042;-68
2022/10/08 01:07:25;;;;;;;6.28;2.15;;;;;;;12.90;100.00;101587.25;10378252;28;20042;-68
2022/10/08 01:12:28;;;;;;;11.88;2.65;;;;;;;12.91;100.00;101578.06;10378259;28;20037;-68
2022/10/08 01:17:47;;;;;;;13.15;3.05;;;;;;;12.94;100.00;101582.28;10375686;28;20396;-68
2022/10/08 01:23:03;;;;;;;19.38;3.65;;;;;;;12.83;100.00;101574.63;10376401;28;20041;-67
2022/10/08 01:28:11;;;;;;;8.05;2.78;;;;;;;12.67;100.00;101582.03;10376473;28;20042;-68
2022/10/08 01:33:21;;;;;;;7.07;2.55;;;;;;;12.53;100.00;101588.38;10359600;28;20183;-68
2022/10/08 01:38:22;;;;;;;8.88;2.40;;;;;;;12.41;100.00;101587.19;10376372;28;20477;-67
2022/10/08 01:43:23;;;;;;;4.35;2.80;;;;;;;12.36;100.00;101581.53;10358396;28;20382;-68
2022/10/08 01:48:26;;;;;;;4.43;2.53;;;;;;;12.43;100.00;101582.41;10358222;28;20037;-68
2022/10/08 01:53:27;;;;;;;6.40;2.75;;;;;;;12.32;100.00;101581.06;10375310;28;20034;-68
2022/10/08 01:58:46;;;;;;;6.20;3.45;;;;;;;12.33;100.00;101597.16;10357531;28;20030;-68
2022/10/08 02:09:05;;;;;;;5.35;2.03;;;;;;;12.18;100.00;101596.34;10359616;28;20457;-68
2022/10/08 02:14:05;;;;;;;21.40;4.32;;;;;;;12.04;100.00;101605.38;10374892;28;20057;-69
2022/10/08 02:19:11;;;;;;;13.30;3.58;;;;;;;11.96;100.00;101600.03;10372915;28;20029;-68
2022/10/08 02:24:16;;;;;;;14.93;3.40;;;;;;;12.00;100.00;101612.22;10373993;28;20459;-69
2022/10/08 02:29:36;;;;;;;12.75;3.00;;;;;;;12.17;100.00;101610.97;10373216;28;20069;-68
2022/10/08 02:34:43;;;;;;;8.93;2.97;;;;;;;12.29;100.00;101617.59;10373363;28;20363;-69
2022/10/08 02:39:46;;;;;;;7.90;2.42;;;;;;;12.19;100.00;101611.63;10372342;28;20067;-69
2022/10/08 02:44:50;;;;;;;18.70;3.13;;;;;;;12.09;100.00;101613.78;10356668;28;20092;-68
2022/10/08 02:49:52;;;;;;;9.05;3.20;;;;;;;11.95;100.00;101612.78;10374700;28;20049;-70
2022/10/08 02:54:53;;;;;;;10.50;4.18;;;;;;;11.86;100.00;101612.03;10356421;28;20038;-70
2022/10/08 02:59:53;;;;;;;12.35;3.33;;;;;;;11.76;100.00;101635.88;10374304;28;20046;-69
2022/10/08 03:05:00;;;;;;;7.40;2.60;;;;;;;11.62;100.00;101645.69;10355462;28;20053;-70
2022/10/08 03:10:05;;;;;;;11.98;3.35;;;;;;;11.72;100.00;101650.00;10340965;28;20022;-70
2022/10/08 03:15:05;;;;;;;12.32;3.55;;;;;;;11.91;100.00;101648.63;10373463;28;20140;-70
2022/10/08 03:20:06;;;;;;;10.93;3.13;;;;;;;11.93;100.00;101639.25;10355684;28;20462;-70
2022/10/08 03:25:07;;;;;;;15.43;3.05;;;;;;;11.90;100.00;101645.09;10371908;28;20034;-70
2022/10/08 03:30:08;;;;;;;8.05;3.30;;;;;;;11.97;100.00;101653.31;10373651;28;20033;-70
2022/10/08 03:35:08;;;;;;;7.95;3.05;;;;;;;11.97;100.00;101653.31;10372611;28;20034;-69
2022/10/08 03:40:09;;;;;;;4.55;2.13;;;;;;;11.91;100.00;101656.78;10372411;28;20382;-70
2022/10/08 03:45:09;;;;;;;5.80;2.05;;;;;;;11.78;100.00;101670.97;10376802;28;20034;-70
2022/10/08 03:50:10;;;;;;;1.65;1.55;;;;;;;11.83;100.00;101679.38;10381521;28;20046;-70
2022/10/08 03:55:10;;;;;;;16.60;2.85;;;;;;;11.90;100.00;101679.50;10380337;28;20037;-70
2022/10/08 04:00:11;;;;;;;3.33;1.73;;;;;;;11.91;100.00;101689.34;10379875;28;20045;-70
2022/10/08 04:05:11;;;;;;;3.95;1.85;;;;;;;11.77;100.00;101690.97;10378349;28;20117;-69
2022/10/08 04:10:12;;;;;;;7.88;2.92;;;;;;;11.62;100.00;101691.81;10379085;28;20160;-70
2022/10/08 04:15:12;;;;;;;5.80;2.72;;;;;;;11.51;100.00;101702.25;10377620;28;20179;-69
2022/10/08 04:20:13;;;;;;;6.63;2.45;;;;;;;11.41;100.00;101711.50;10379353;28;20038;-69
2022/10/08 04:25:13;;;;;;;8.60;1.70;;;;;;;11.34;100.00;101715.97;10377890;28;20041;-69
2022/10/08 04:30:15;;;;;;;7.53;1.70;;;;;;;11.33;100.00;101718.88;10379493;28;20490;-69
2022/10/08 04:35:15;;;;;;;7.97;2.60;;;;;;;11.26;100.00;101713.31;10362602;28;20108;-69
2022/10/08 04:40:15;;;;;;;6.28;2.33;;;;;;;11.14;100.00;101720.22;10377784;28;20041;-69
2022/10/08 04:45:16;;;;;;;6.00;2.35;;;;;;;11.14;100.00;101714.81;10378465;28;20445;-69
2022/10/08 04:50:16;;;;;;;19.13;3.85;;;;;;;11.11;100.00;101726.00;10360709;28;20040;-69
2022/10/08 04:55:17;;;;;;;5.43;2.58;;;;;;;11.16;100.00;101727.13;10377041;28;20033;-70
2022/10/08 05:00:17;;;;;;;12.38;3.83;;;;;;;11.23;100.00;101734.53;10362486;28;20541;-68
2022/10/08 05:05:18;;;;;;;4.35;2.15;;;;;;;11.18;100.00;101748.66;10379394;28;20080;-69
2022/10/08 05:10:18;;;;;;;5.32;2.45;;;;;;;11.14;100.00;101747.34;10376160;28;20477;-68
2022/10/08 05:15:18;;;;;;;5.43;2.45;;;;;;;11.17;100.00;101757.81;10376425;28;20462;-68
2022/10/08 05:20:19;;;;;;;2.33;1.48;;;;;;;11.23;100.00;101751.66;10376887;28;20049;-69
2022/10/08 05:25:19;;;;;;;7.63;2.30;;;;;;;11.31;100.00;101765.16;10374779;28;20437;-68
2022/10/08 05:30:20;;;;;;;4.68;1.88;;;;;;;11.29;100.00;101778.03;10376427;28;20061;-69
2022/10/08 05:35:20;;;;;;;11.13;2.70;;;;;;;11.24;100.00;101768.78;10376461;28;20096;-68
2022/10/08 05:40:20;;;;;;;8.52;1.75;;;;;;;11.25;100.00;101790.28;10375990;28;20060;-68
2022/10/08 05:45:22;;;;;;;5.57;2.10;;;;;;;11.23;100.00;101786.91;10375479;28;20096;-68
2022/10/08 05:50:22;;;;;;;11.88;3.80;;;;;;;11.25;100.00;101797.56;10376806;28;20407;-68
2022/10/08 05:55:22;;;;;;;4.20;2.35;;;;;;;11.22;100.00;101796.06;10374795;28;20038;-68
2022/10/08 06:00:23;;;;;;;4.65;1.77;;;;;;;11.26;100.00;101810.94;10374209;28;20544;-69
2022/10/08 06:05:23;;;;;;;10.85;2.03;;;;;;;11.35;100.00;101826.13;10376039;28;20382;-69
2022/10/08 06:10:24;;;;;;;4.50;1.65;;;;;;;11.44;100.00;101840.47;10375409;28;20034;-68
2022/10/08 06:15:24;;;;;;;5.28;1.23;;;;;;;11.56;100.00;101849.06;10377800;28;20446;-68
2022/10/08 06:20:25;;;;;;;3.30;1.98;;;;;;;11.76;100.00;101852.94;10373998;28;20034;-68
2022/10/08 06:25:25;;;;;;;8.68;1.88;;;;;;;11.78;100.00;101869.91;10376063;28;20481;-68
2022/10/08 06:30:26;;;;;;;3.92;1.77;;;;;;;11.87;100.00;101868.00;10376002;28;20038;-67
2022/10/08 06:35:26;;;;;;;4.30;2.33;;;;;;;11.72;100.00;101880.66;10373275;28;20040;-67
2022/10/08 06:40:26;;;;;;;5.68;2.33;;;;;;;12.49;100.00;101897.63;10374473;28;20038;-67
2022/10/08 06:45:27;;;;;;;9.68;2.80;;;;;;;12.74;100.00;101902.81;10374897;28;20045;-68
2022/10/08 06:50:27;;;;;;;5.47;2.22;;;;;;;13.55;100.00;101902.78;10375289;28;20040;-67
2022/10/08 06:55:28;;;;;;;8.30;1.95;;;;;;;14.11;100.00;101909.22;10373959;28;20038;-66
2022/10/08 07:00:28;;;;;;;9.55;2.92;;;;;;;14.76;100.00;101911.81;10372970;28;20489;-67
2022/10/08 07:05:28;;;;;;;4.72;2.25;;;;;;;15.28;98.27;101903.06;10373476;28;20136;-67
2022/10/08 07:10:29;;;;;;;10.40;2.67;;;;;;;15.66;97.55;101920.81;10375085;28;20045;-67
2022/10/08 07:15:31;;;;;;;6.10;1.88;;;;;;;15.74;96.49;101929.69;10373461;28;20315;-67
2022/10/08 07:20:31;;;;;;;8.23;2.30;;;;;;;16.23;96.09;101933.09;10379710;28;20057;-67
2022/10/08 07:25:32;;;;;;;4.40;2.40;;;;;;;16.87;95.75;101945.28;10381631;28;20092;-67
2022/10/08 07:30:35;;;;;;;6.97;2.83;;;;;;;17.02;95.40;101947.78;10381258;28;20092;-67
2022/10/08 07:35:36;;;;;;;11.82;2.05;;;;;;;17.21;96.53;101949.59;10380726;28;20029;-67
2022/10/08 07:40:37;;;;;;;15.82;2.70;;;;;;;17.62;96.01;101965.66;10380136;28;20034;-67
2022/10/08 07:45:42;;;;;;;7.75;2.47;;;;;;;17.52;93.54;101978.13;10380591;28;20040;-67
2022/10/08 07:50:43;;;;;;;2.28;1.73;;;;;;;17.96;93.22;101981.91;10370543;28;20033;-69
2022/10/08 07:55:43;;;;;;;9.45;2.55;;;;;;;18.22;91.67;101992.72;10383973;28;20068;-69
2022/10/08 08:00:43;;;;;;;12.77;3.15;;;;;;;19.09;91.82;102000.22;10383217;28;20386;-66
2022/10/08 08:05:44;;;;;;;4.15;2.20;;;;;;;18.76;93.12;101993.13;10381564;28;20034;-67
2022/10/08 08:10:44;;;;;;;8.45;2.13;;;;;;;17.23;94.45;102018.69;10389298;28;20029;-67
2022/10/08 08:15:45;;;;;;;2.90;2.13;;;;;;;15.78;95.53;102022.97;10402889;28;20030;-67
2022/10/08 08:20:45;;;;;;;1.55;1.45;;;;;;;17.17;94.17;102036.78;10391934;28;20038;-67
2022/10/08 08:25:45;;;;;;;3.95;2.42;;;;;;;18.38;90.55;102035.22;10386074;28;20038;-67
2022/10/08 08:30:46;;;;;;;13.00;2.10;;;;;;;19.05;86.74;102041.03;10388563;28;20038;-67
2022/10/08 08:35:51;;;;;;;2.55;2.00;;;;;;;19.58;87.49;102061.56;10390020;28;20065;-68
2022/10/08 08:40:52;;;;;;;6.70;1.75;;;;;;;19.81;82.65;102053.47;10390639;28;20105;-67
2022/10/08 08:45:53;;;;;;;1.40;1.40;;;;;;;20.14;83.01;102057.72;10390217;28;20034;-67
2022/10/08 08:50:54;;;;;;;1.88;1.70;;;;;;;20.51;79.26;102065.84;10394477;28;20044;-67
2022/10/08 08:55:56;;;;;;;3.50;2.20;;;;;;;19.50;78.33;102081.97;10362048;28;20029;-67
2022/10/08 09:01:40;;;;;;;2.80;1.88;;;;;;;17.94;79.80;102090.94;10380345;28;20029;-67
2022/10/08 09:06:40;;;;;;;4.82;2.15;;;;;;;19.00;83.33;102101.25;10397275;28;20081;-66
2022/10/08 09:11:42;;;;;;;3.47;2.10;;;;;;;19.40;79.40;102104.47;10396645;28;20049;-67
2022/10/08 09:16:43;;;;;;;5.88;1.88;;;;;;;19.23;77.34;102109.69;10400353;28;20069;-67
2022/10/08 09:21:43;;;;;;;3.53;2.22;;;;;;;19.59;77.53;102120.94;10400771;28;20045;-67
2022/10/08 09:26:44;;;;;;;2.17;1.77;;;;;;;20.17;75.79;102124.09;10399082;28;20038;-66
2022/10/08 09:31:44;;;;;;;15.90;2.00;;;;;;;20.66;73.63;102135.91;10401589;28;20042;-67
2022/10/08 09:36:52;;;;;;;8.20;1.67;;;;;;;20.70;72.48;102136.28;10401676;28;20026;-67
2022/10/08 09:42:08;;;;;;;4.93;2.28;;;;;;;20.83;70.84;102140.72;10388235;28;20046;-67
2022/10/08 09:47:13;;;;;;;4.63;1.83;;;;;;;21.40;67.74;102146.59;10403051;28;20042;-67
2022/10/08 09:52:20;;;;;;;6.80;1.63;;;;;;;21.72;69.40;102154.47;10399922;28;20044;-67
2022/10/08 09:57:21;;;;;;;5.53;2.33;;;;;;;22.41;71.26;102158.16;10399334;28;20148;-65
2022/10/08 10:02:37;;;;;;;10.77;2.20;;;;;;;21.39;73.53;102155.94;10396542;28;20068;-67
2022/10/08 10:07:42;;;;;;;4.50;1.40;;;;;;;21.44;74.01;102161.59;10393037;28;20478;-66
2022/10/08 10:12:45;;;;;;;3.33;2.53;;;;;;;20.06;74.37;102168.03;10390541;28;20048;-66
2022/10/08 10:17:55;;;;;;;2.17;1.52;;;;;;;21.10;73.81;102168.69;10387381;28;20029;-67
2022/10/08 10:23:02;;;;;;;5.55;2.40;;;;;;;22.16;66.71;102174.22;10385702;28;20117;-67
2022/10/08 10:28:40;;;;;;;2.92;1.63;;;;;;;22.28;71.41;102181.38;10379962;28;20034;-67
2022/10/08 10:33:52;;;;;;;6.30;2.17;;;;;;;22.24;69.52;102177.44;10382105;28;20488;-65
2022/10/08 10:39:02;;;;;;;2.08;1.75;;;;;;;20.83;71.79;102173.78;10392946;28;20048;-68
2022/10/08 10:44:04;;;;;;;4.72;1.85;;;;;;;21.53;69.98;102195.94;10378100;28;20136;-69
2022/10/08 10:49:13;;;;;;;3.63;2.00;;;;;;;21.61;72.16;102210.47;10392966;28;20049;-68
2022/10/08 10:54:41;;;;;;;8.82;2.67;;;;;;;21.63;73.33;102198.09;10367607;28;20041;-68
2022/10/08 10:59:45;;;;;;;4.43;2.47;;;;;;;22.04;68.39;102213.66;10402549;28;20085;-67
2022/10/08 11:05:10;;;;;;;4.03;2.22;;;;;;;22.41;66.68;102216.13;10343757;28;20058;-67
2022/10/08 11:10:35;;;;;;;2.72;1.77;;;;;;;21.16;71.27;102206.31;10390488;28;20033;-68
2022/10/08 11:15:49;;;;;;;4.53;2.55;;;;;;;21.28;70.01;102223.72;10403765;28;20030;-67
2022/10/08 11:21:16;;;;;;;2.08;1.73;;;;;;;21.40;71.73;102223.75;10390885;28;20030;-67
2022/10/08 11:26:24;;;;;;;2.53;2.00;;;;;;;21.89;68.71;102235.41;10404042;28;20084;-67
2022/10/08 11:31:31;;;;;;;5.10;2.05;;;;;;;23.13;65.07;102229.41;10372961;28;20041;-67
2022/10/08 11:36:41;;;;;;;3.85;1.77;;;;;;;23.57;63.97;102226.81;10386955;28;20073;-67
2022/10/08 11:41:56;;;;;;;6.50;2.40;;;;;;;23.88;70.05;102232.84;10371991;28;20080;-66
2022/10/08 11:47:56;;;;;;;1.30;1.20;;;;;;;21.32;69.60;102226.84;10403196;28;20041;-67
2022/10/08 11:53:18;;;;;;;1.38;1.02;;;;;;;18.76;75.92;102240.13;10351484;28;20052;-66
2022/10/08 11:58:22;;;;;;;3.83;1.95;;;;;;;18.24;77.52;102236.53;10400406;28;20172;-67
2022/10/08 12:03:28;;;;;;;2.65;2.13;;;;;;;18.68;78.29;102226.63;10384124;28;20057;-66
2022/10/08 12:09:05;;;;;;;2.50;1.83;;;;;;;18.62;78.36;102228.34;10388951;28;20049;-66
2022/10/08 12:14:24;;;;;;;5.00;2.03;;;;;;;19.23;74.20;102225.03;10358008;28;20113;-66
2022/10/08 12:19:34;;;;;;;3.08;2.05;;;;;;;20.49;73.12;102233.09;10354201;28;20072;-69
2022/10/08 12:24:37;;;;;;;5.20;2.20;;;;;;;19.57;71.44;102225.59;10409609;28;20056;-69
2022/10/08 12:29:57;;;;;;;1.67;1.52;;;;;;;19.49;70.78;102242.34;10403566;28;20049;-68
2022/10/08 12:34:58;;;;;;;4.88;1.73;;;;;;;17.85;75.21;102241.88;10404972;28;20038;-71
2022/10/08 12:40:01;;;;;;;3.75;1.95;;;;;;;18.72;77.42;102236.09;10384952;28;20034;-69
2022/10/08 12:45:17;;;;;;;3.88;2.35;;;;;;;20.46;76.71;102239.91;10380063;28;20037;-68
2022/10/08 12:50:55;;;;;;;4.97;2.28;;;;;;;21.19;72.75;102255.44;10390021;28;20034;-67
2022/10/08 12:55:55;;;;;;;2.38;1.75;;;;;;;21.20;69.32;102248.00;10390221;28;20389;-68
2022/10/08 13:00:58;;;;;;;7.75;1.95;;;;;;;20.72;74.85;102254.44;10370738;28;20049;-68
2022/10/08 13:06:13;;;;;;;11.65;1.85;;;;;;;20.06;76.24;102248.59;10389715;28;20034;-67
2022/10/08 13:11:14;;;;;;;3.13;2.30;;;;;;;19.11;77.89;102257.00;10372601;28;20071;-68
2022/10/08 13:16:17;;;;;;;3.53;1.73;;;;;;;19.62;70.42;102257.88;10370881;28;20066;-67
2022/10/08 13:21:30;;;;;;;1.90;1.70;;;;;;;18.62;73.95;102263.19;10383738;28;20033;-67
2022/10/08 13:26:40;;;;;;;3.65;2.33;;;;;;;19.50;74.16;102255.06;10380162;28;20041;-67
2022/10/08 13:31:41;;;;;;;5.57;3.03;;;;;;;20.18;75.73;102259.69;10378400;28;20351;-67
2022/10/08 13:36:47;;;;;;;6.03;2.45;;;;;;;20.09;76.87;102261.91;10360761;28;20034;-69
2022/10/08 13:41:49;;;;;;;1.58;1.35;;;;;;;19.23;76.34;102276.38;10378737;28;20354;-68
2022/10/08 13:46:50;;;;;;;1.55;1.45;;;;;;;18.38;72.17;102281.19;10324251;28;20050;-67
2022/10/08 13:51:50;;;;;;;7.80;2.83;;;;;;;18.50;75.11;102274.81;10376710;28;20038;-72
2022/10/08 13:56:51;;;;;;;7.15;2.17;;;;;;;17.76;77.19;102289.72;10375390;28;20129;-71
2022/10/08 14:01:51;;;;;;;10.45;2.63;;;;;;;17.49;81.01;102304.47;10379514;28;20050;-69
2022/10/08 14:06:53;;;;;;;5.78;1.92;;;;;;;16.64;78.16;102301.25;10376616;28;20049;-69
2022/10/08 14:11:58;;;;;;;3.75;3.45;;;;;;;16.80;79.84;102294.63;10375783;28;20041;-68
2022/10/08 14:16:59;;;;;;;11.83;2.97;;;;;;;17.36;81.60;102297.91;10378720;28;20053;-68
2022/10/08 14:22:00;;;;;;;14.20;2.50;;;;;;;17.43;84.58;102296.03;10361071;28;20464;-66
2022/10/08 14:27:00;;;;;;;5.40;2.38;;;;;;;17.87;80.77;102297.34;10376717;28;20038;-67
2022/10/08 14:32:01;;;;;;;3.97;2.50;;;;;;;18.31;80.48;102303.16;10377300;28;20046;-67
2022/10/08 14:37:02;;;;;;;3.08;2.78;;;;;;;18.22;81.65;102302.56;10358611;28;20109;-68
2022/10/08 14:42:03;;;;;;;3.58;1.92;;;;;;;17.66;83.44;102303.81;10358428;28;20224;-68
2022/10/08 14:47:03;;;;;;;4.47;2.17;;;;;;;17.65;84.74;102309.53;10375944;28;20500;-66
2022/10/08 14:52:03;;;;;;;8.68;1.83;;;;;;;16.89;83.04;102312.53;10331849;28;20076;-71
2022/10/08 14:57:04;;;;;;;11.00;2.85;;;;;;;16.61;83.24;102323.53;10374003;28;20042;-66
2022/10/08 15:02:04;;;;;;;1.88;1.77;;;;;;;16.20;83.46;102327.91;10373671;28;20461;-66
2022/10/08 15:07:05;;;;;;;7.18;2.15;;;;;;;15.90;83.70;102321.81;10372928;28;20049;-66
2022/10/08 15:12:06;;;;;;;2.50;2.20;;;;;;;15.88;83.62;102321.16;10374218;28;20064;-66
2022/10/08 15:17:06;;;;;;;6.78;2.50;;;;;;;15.80;83.56;102315.88;10373803;28;20070;-67
2022/10/08 15:22:07;;;;;;;3.63;2.58;;;;;;;15.73;84.18;102326.75;10373436;28;20037;-66
2022/10/08 15:27:07;;;;;;;4.90;2.60;;;;;;;15.74;83.08;102324.84;10374791;28;20038;-66
2022/10/08 15:32:07;;;;;;;7.13;2.13;;;;;;;15.61;83.48;102327.44;10373957;28;20046;-66
2022/10/08 15:37:08;;;;;;;9.65;2.38;;;;;;;15.49;83.28;102327.94;10374151;28;20372;-66
2022/10/08 15:42:10;;;;;;;4.70;1.85;;;;;;;15.62;84.01;102326.38;10379120;28;20029;-66
2022/10/08 15:47:11;;;;;;;7.38;2.35;;;;;;;15.57;83.50;102321.50;10347432;28;20029;-65
2022/10/08 15:52:13;;;;;;;10.43;2.35;;;;;;;15.23;83.50;102320.34;10380549;28;20041;-65
2022/10/08 15:57:15;;;;;;;11.55;1.67;;;;;;;14.91;84.50;102335.28;10379491;28;20046;-66
2022/10/08 16:02:16;;;;;;;5.07;2.40;;;;;;;14.59;84.67;102339.28;10378839;28;20042;-65
2022/10/08 16:07:16;;;;;;;10.07;2.97;;;;;;;14.36;85.07;102344.81;10382607;28;20045;-66
2022/10/08 16:12:16;;;;;;;2.47;1.88;;;;;;;14.23;85.16;102353.63;10380528;28;20037;-66
2022/10/08 16:17:17;;;;;;;20.30;2.80;;;;;;;14.07;85.47;102345.59;10380322;28;20052;-66
2022/10/08 16:22:17;;;;;;;3.08;1.33;;;;;;;13.92;85.26;102348.31;10362211;28;20362;-66
2022/10/08 16:27:18;;;;;;;17.02;2.70;;;;;;;13.71;86.06;102354.44;10379791;28;20088;-66
2022/10/08 16:32:18;;;;;;;14.65;2.65;;;;;;;13.60;85.46;102365.78;10379194;28;20026;-66
2022/10/08 16:37:19;;;;;;;8.50;3.20;;;;;;;13.45;85.66;102369.25;10362690;28;20127;-66
2022/10/08 16:42:19;;;;;;;4.45;1.38;;;;;;;13.36;86.34;102374.94;10377043;28;20030;-66
2022/10/08 16:47:20;;;;;;;3.38;1.92;;;;;;;13.24;85.93;102385.34;10378668;28;20374;-66
2022/10/08 16:52:20;;;;;;;2.88;2.10;;;;;;;13.08;85.82;102386.31;10377430;28;20029;-66
2022/10/08 16:57:21;;;;;;;4.53;2.75;;;;;;;12.92;86.77;102389.06;10378949;28;20060;-66
2022/10/08 17:02:21;;;;;;;4.28;2.67;;;;;;;12.83;86.93;102382.84;10378259;28;20058;-67
2022/10/08 17:07:22;;;;;;;6.70;2.83;;;;;;;12.67;86.99;102391.06;10375798;28;20064;-66
2022/10/08 17:12:22;;;;;;;3.85;2.50;;;;;;;12.51;86.88;102390.06;10376919;28;20087;-66
2022/10/08 17:17:23;;;;;;;12.13;2.70;;;;;;;12.36;87.02;102399.13;10343157;28;20099;-65
2022/10/08 17:22:23;;;;;;;5.22;2.22;;;;;;;12.20;87.17;102400.81;10376556;28;20038;-67
2022/10/08 17:27:24;;;;;;;4.95;2.45;;;;;;;12.10;87.41;102408.31;10375388;28;20470;-66
2022/10/08 17:32:24;;;;;;;3.22;2.75;;;;;;;11.98;87.25;102424.09;10376507;28;20037;-66
2022/10/08 17:37:24;;;;;;;3.42;2.35;;;;;;;11.89;87.57;102425.09;10376179;28;20036;-66
2022/10/08 17:42:25;;;;;;;5.45;2.55;;;;;;;11.79;87.72;102429.81;10374440;28;20068;-66
2022/10/08 17:47:25;;;;;;;10.10;3.25;;;;;;;11.87;88.83;102443.44;10357858;28;20470;-66
2022/10/08 17:52:26;;;;;;;5.35;2.13;;;;;;;12.08;89.22;102438.34;10376687;28;20037;-65
2022/10/08 17:57:26;;;;;;;5.45;4.18;;;;;;;12.05;88.78;102440.53;10377264;28;20034;-65
2022/10/08 18:02:26;;;;;;;7.95;4.10;;;;;;;11.93;88.28;102445.44;10357605;28;20437;-65
2022/10/08 18:07:27;;;;;;;11.10;5.63;;;;;;;11.71;88.20;102444.22;10375351;28;20065;-67
2022/10/08 18:12:27;;;;;;;11.82;4.32;;;;;;;11.51;88.62;102450.97;10375521;28;20026;-67
2022/10/08 18:17:27;;;;;;;5.32;3.60;;;;;;;11.37;88.13;102461.44;10375573;28;20478;-67
2022/10/08 18:22:28;;;;;;;12.38;4.65;;;;;;;11.29;88.27;102471.41;10375517;28;20037;-66
2022/10/08 18:27:28;;;;;;;16.50;6.30;;;;;;;11.11;88.64;102468.81;10374959;28;20041;-65
2022/10/08 18:32:29;;;;;;;11.00;5.85;;;;;;;10.97;88.58;102472.94;10376418;28;20084;-66
2022/10/08 18:37:29;;;;;;;8.38;5.18;;;;;;;10.88;88.39;102474.78;10377996;28;20441;-65
2022/10/08 18:42:29;;;;;;;8.93;4.80;;;;;;;10.75;88.84;102481.63;10375305;28;20030;-65
2022/10/08 18:47:30;;;;;;;6.53;4.05;;;;;;;10.68;88.89;102484.13;10382490;28;20038;-66
2022/10/08 18:52:32;;;;;;;7.45;4.45;;;;;;;10.60;88.59;102484.94;10378954;28;20030;-66
2022/10/08 18:57:32;;;;;;;7.18;3.65;;;;;;;10.45;88.82;102484.66;10374763;28;20413;-66
2022/10/08 19:02:32;;;;;;;12.18;6.78;;;;;;;10.38;89.22;102489.00;10374759;28;20181;-66
2022/10/08 19:07:33;;;;;;;18.77;6.35;;;;;;;10.29;89.42;102495.34;10373712;28;20034;-66
2022/10/08 19:12:33;;;;;;;11.50;5.38;;;;;;;10.22;89.25;102503.22;10376437;28;20429;-67
2022/10/08 19:17:34;;;;;;;13.07;11.73;;;;;;;10.19;90.29;102508.09;10382902;28;20069;-65
2022/10/08 19:22:34;;;;;;;16.75;6.38;;;;;;;10.08;89.66;102505.63;10399552;28;20054;-68
2022/10/08 19:27:35;;;;;;;11.95;5.70;;;;;;;9.98;89.24;102509.25;10383140;28;20125;-67
2022/10/08 19:32:35;;;;;;;9.63;5.47;;;;;;;9.94;89.44;102515.13;10382903;28;20046;-66
2022/10/08 19:37:35;;;;;;;11.43;4.82;;;;;;;9.86;90.27;102518.63;10381440;28;20056;-66
2022/10/08 19:42:36;;;;;;;6.50;4.10;;;;;;;9.82;90.47;102513.66;10379932;28;20116;-66
2022/10/08 19:47:36;;;;;;;23.80;4.57;;;;;;;9.76;89.92;102512.41;10381514;28;20045;-65
2022/10/08 19:52:37;;;;;;;8.88;4.43;;;;;;;9.77;90.19;102506.84;10381368;28;20050;-66
2022/10/08 19:57:37;;;;;;;10.02;4.00;;;;;;;9.75;90.95;102518.81;10380751;28;20115;-66
2022/10/08 20:02:37;;;;;;;11.35;5.03;;;;;;;9.75;91.18;102518.81;10380859;28;20078;-66
2022/10/08 20:07:38;;;;;;;13.77;4.00;;;;;;;9.71;90.96;102522.84;10381284;28;20501;-66
2022/10/08 20:12:39;;;;;;;7.85;4.20;;;;;;;9.73;91.09;102526.22;10381904;28;20034;-66
2022/10/08 20:17:39;;;;;;;6.00;3.88;;;;;;;9.68;90.63;102520.44;10382967;28;20367;-65
2022/10/08 20:22:39;;;;;;;13.57;5.43;;;;;;;9.67;91.45;102532.28;10382725;28;20030;-66
2022/10/08 20:27:40;;;;;;;8.07;3.70;;;;;;;9.68;90.84;102529.41;10380398;28;20038;-66
2022/10/08 20:32:40;;;;;;;8.55;4.50;;;;;;;9.64;90.94;102533.44;10379530;28;20034;-66
2022/10/08 20:37:40;;;;;;;8.57;5.07;;;;;;;9.54;91.22;102533.47;10380046;28;20526;-65
2022/10/08 20:42:41;;;;;;;9.10;3.50;;;;;;;9.46;91.20;102529.81;10362499;28;20038;-67
2022/10/08 20:47:41;;;;;;;6.60;3.80;;;;;;;9.61;92.54;102532.88;10364343;28;20041;-65
2022/10/08 20:52:42;;;;;;;6.18;3.08;;;;;;;9.84;92.17;102534.16;10379997;28;20029;-66
2022/10/08 20:57:42;;;;;;;17.92;4.25;;;;;;;10.00;92.58;102541.59;10380047;28;20430;-66
2022/10/08 21:02:42;;;;;;;3.65;3.30;;;;;;;10.19;93.40;102537.88;10379671;28;20080;-66
2022/10/08 21:07:43;;;;;;;12.43;4.68;;;;;;;10.44;94.60;102531.72;10362838;28;20049;-66
2022/10/08 21:12:43;;;;;;;2.70;2.55;;;;;;;10.61;93.95;102538.09;10384736;28;20037;-66
2022/10/08 21:17:44;;;;;;;9.50;2.65;;;;;;;10.62;93.28;102531.66;10383564;28;20077;-66
2022/10/08 21:22:44;;;;;;;6.72;3.13;;;;;;;10.54;93.29;102530.78;10379356;28;20034;-65
2022/10/08 21:27:44;;;;;;;4.80;2.50;;;;;;;10.46;93.50;102545.97;10379861;28;20064;-68
2022/10/08 21:32:46;;;;;;;7.05;4.15;;;;;;;10.41;93.39;102542.84;10377890;28;20402;-66
2022/10/08 21:37:47;;;;;;;9.40;4.18;;;;;;;10.24;93.23;102530.13;10383128;28;20452;-67
2022/10/08 21:42:47;;;;;;;4.90;4.43;;;;;;;10.13;93.14;102530.38;10383965;28;20121;-65
2022/10/08 21:47:48;;;;;;;9.55;4.97;;;;;;;9.95;93.16;102547.44;10378872;28;20489;-66
2022/10/08 21:52:48;;;;;;;7.43;4.53;;;;;;;9.75;93.51;102543.19;10378013;28;20080;-65
2022/10/08 21:57:48;;;;;;;10.90;4.72;;;;;;;9.63;93.50;102541.69;10379323;28;20069;-65
2022/10/08 22:02:49;;;;;;;8.40;5.07;;;;;;;9.52;92.81;102537.34;10361848;28;20065;-65
2022/10/08 22:07:49;;;;;;;14.10;4.18;;;;;;;9.38;93.37;102537.81;10379377;28;20066;-65
2022/10/08 22:12:49;;;;;;;4.05;3.65;;;;;;;9.27;93.37;102536.16;10379882;28;20064;-65
2022/10/08 22:17:50;;;;;;;6.80;4.35;;;;;;;9.24;94.06;102534.59;10361905;28;20026;-65
2022/10/08 22:22:50;;;;;;;7.90;4.50;;;;;;;9.24;94.08;102531.91;10378327;28;20073;-66
2022/10/08 22:27:51;;;;;;;4.80;3.83;;;;;;;9.12;93.68;102527.69;10376232;28;20386;-65
2022/10/08 22:32:51;;;;;;;6.32;4.72;;;;;;;8.99;93.71;102530.72;10377905;28;20030;-68
2022/10/08 22:37:51;;;;;;;15.93;7.22;;;;;;;8.99;93.99;102533.41;10361035;28;20030;-67
2022/10/08 22:42:52;;;;;;;10.90;5.82;;;;;;;8.93;93.68;102542.09;10376992;28;20044;-67
2022/10/08 22:47:52;;;;;;;8.77;6.50;;;;;;;8.99;94.16;102530.72;10360408;28;20046;-67
2022/10/08 22:52:52;;;;;;;8.43;5.45;;;;;;;9.03;94.26;102529.44;10376248;28;20030;-65
2022/10/08 22:57:53;;;;;;;9.65;5.95;;;;;;;9.16;95.49;102531.81;10378736;28;20038;-66
2022/10/08 23:02:53;;;;;;;9.20;6.60;;;;;;;9.37;95.65;102531.56;10381450;28;20053;-66
2022/10/08 23:07:55;;;;;;;8.43;5.80;;;;;;;9.55;95.77;102524.34;10381968;28;20382;-66
2022/10/08 23:12:55;;;;;;;7.22;4.93;;;;;;;9.70;96.29;102518.41;10381729;28;20034;-66